Las horas y fechas están en horario UTC.
Sumar 1 hora en el horario de invierno y 2 horas en el de verano.

Informes METAR cercanos

 

LEZL - Sevilla (civ/Mil, Spain
Distance from station: NNE 24km
Actualización: 16/08/2022 19:30
Despejado
Despejado
 Viento del NO
Viento: NO 17 km/h
Temperatura: 30°C
Rocío: 12°C
Humedad: 33%
Barómetro: 1009 hPa
Resumen: Despejado
Visibility: greater than 10 km
2022/08/16 19:30 LEZL 161930Z 31009KT CAVOK 30/12 Q1009 NOSIG
LEMO - Moron (sp-Usafb), Spain
Distance from station: E 38km
Actualización: 16/08/2022 19:30
Few Clouds
Few Clouds
 Viento del SO
Viento: SO 26 km/h
Temperatura: 26°C
Rocío: 15°C
Humedad: 51%
Barómetro: 1010 hPa
Clouds: Few Clouds
Visibility: 10 km
Cloud details: Few Clouds 1524 m
2022/08/16 19:30 LEMO 161930Z 23014KT 200V260 9999 FEW050 26/15 Q1010 NOSIG
LEJR - Jerez (civ/Mil), Spain
Distance from station: S 53km
Actualización: 16/08/2022 19:30
Despejado
Despejado
 Viento del SO
Viento: SO 19 km/h
Temperatura: 24°C
Rocío: 17°C
Humedad: 65%
Barómetro: 1011 hPa
Resumen: Despejado
Visibility: greater than 10 km
2022/08/16 19:30 LEJR 161930Z 23010KT 200V260 CAVOK 24/17 Q1011
 
LERT - Rota Naval Stati, Spain
Distance from station: SSO 71km
Actualización: 16/08/2022 19:30
Despejado
Despejado
 Viento del O
Viento: O 26 km/h
Temperatura: 24°C
Rocío: 20°C
Humedad: 78%
Barómetro: 1011 hPa
Resumen: Despejado
Visibility: greater than 10 km
2022/08/16 19:30 LERT 161930Z 26014KT 230V290 CAVOK 24/20 Q1011 NOSIG
LEBA - Cordoba Airport, Spain
Distance from station: ENE 128km
Actualización: 16/08/2022 19:30
Despejado
Despejado
 Viento del O
Viento: O 11 km/h
Temperatura: 30°C
Rocío: 8°C
Humedad: 25%
Barómetro: 1008 hPa
Resumen: Despejado
Visibility: greater than 10 km
2022/08/16 19:30 LEBA 161930Z AUTO 26006KT CAVOK 30/08 Q1008
LXGB - Gibraltar (civ/M, Gibraltar
Distance from station: SSE 137km
Actualización: 16/08/2022 19:20
Despejado
Despejado
 Viento del O
Viento: O 22 km/h
Temperatura: 24°C
Rocío: 15°C
Humedad: 57%
Barómetro: 1010 hPa
Resumen: Despejado
Visibility: greater than 10 km
2022/08/16 19:20 LXGB 161920Z 27012KT CAVOK 24/15 Q1010 NOSIG RMK BLU BLU
 
LEMG - Malaga (civ/Mil), Spain
Distance from station: ESE 150km
Actualización: 16/08/2022 19:30
Despejado
Despejado
 Viento del ONO
Viento: ONO 19 km/h
Temperatura: 31°C
Rocío: 9°C
Humedad: 25%
Barómetro: 1008 hPa
Resumen: Despejado
Visibility: greater than 10 km
2022/08/16 19:30 LEMG 161930Z 29010KT CAVOK 31/09 Q1008 NOSIG
GMTT - Tangier/Boukhalf, Morocco
Distance from station: S 169km
Actualización: 16/08/2022 19:30
Despejado
Despejado
 Viento del O
Viento: O 20 km/h
Temperatura: 23°C
Rocío: 20°C
Humedad: 83%
Barómetro: 1012 hPa
Resumen: Despejado
Visibility: greater than 10 km
2022/08/16 19:30 GMTT 161930Z 27011KT CAVOK 23/20 Q1012 NOSIG
LPFR - Faro, Portugal
Distance from station: O 172km
Actualización: 16/08/2022 19:30
Despejado
Despejado
 Viento del ONO
Viento: ONO 26 km/h
Temperatura: 25°C
Rocío: 13°C
Humedad: 47%
Barómetro: 1011 hPa
Resumen: Despejado
Visibility: greater than 10 km
2022/08/16 19:30 LPFR 161930Z 30014KT CAVOK 25/13 Q1011
 
LPBJ - Beja (por/Ger-Af, Portugal
Distance from station: ONO 192km
Actualización: 16/08/2022 19:00
Despejado
Despejado
 Viento del NO
Viento: NO 24 km/h
Temperatura: 24°C
Rocío: 10°C
Humedad: 41%
Barómetro: 1013 hPa
Resumen: Despejado
Visibility: greater than 10 km
2022/08/16 19:00 LPBJ 161900Z 32013KT CAVOK 24/10 Q1013
LEBZ - Talavera Ab/Bada, Spain
Distance from station: NNO 194km
Actualización: 16/08/2022 19:30
Despejado
Despejado
 Viento del O
Viento: O 20 km/h
Temperatura: 25°C
Rocío: 8°C
Humedad: 34%
Barómetro: 1011 hPa
Resumen: Despejado
Visibility: greater than 10 km
2022/08/16 19:30 LEBZ 161930Z 28011KT CAVOK 25/08 Q1011
LEMD - Madrid/Barajas, Spain
Distance from station: NE 415km
Actualización: 16/08/2022 19:30
Despejado
Despejado
 Viento del ONO
Viento: ONO 20 km/h
Temperatura: 26°C
Rocío: 6°C
Humedad: 28%
Barómetro: 1010 hPa
Resumen: Despejado
Visibility: greater than 10 km
2022/08/16 19:30 LEMD 161930Z 29011KT CAVOK 26/06 Q1010 NOSIG